Time;durP1;ratioP1;P1;durP2;ratioP2;P2;SDS_P1;SDS_P2;PMS_P1;PMS_P2;Temp;Humidity;BMP_temperature;BMP_pressure;BME280_temperature;BME280_humidity;BME280_pressure;Samples;Min_cycle;Max_cycle;Signal;HPM_P1;HPM_P2
2022/10/15 00:01:12;;;;;;;;;14.80;13.20;;;;;17.53;86.54;99278.00;5047525;28;45483;-72
2022/10/15 00:03:39;;;;;;;;;12.75;12.75;;;;;17.50;86.50;99280.00;5054514;28;45466;-72
2022/10/15 00:06:11;;;;;;;;;17.75;14.25;;;;;17.47;86.85;99278.41;5051356;28;45615;-72
2022/10/15 00:08:37;;;;;;;;;13.75;12.25;;;;;17.44;86.15;99273.25;5054367;28;46589;-72
2022/10/15 00:11:09;;;;;;;;;11.80;11.40;;;;;17.40;86.34;99269.97;5052144;28;45510;-72
2022/10/15 00:13:34;;;;;;;;;13.25;12.00;;;;;17.39;86.53;99283.38;5054215;28;45301;-72
2022/10/15 00:16:00;;;;;;;;;14.25;12.25;;;;;17.34;86.76;99272.16;5045858;28;45321;-72
2022/10/15 00:18:25;;;;;;;;;15.25;15.00;;;;;17.31;87.00;99269.69;5053132;28;46497;-72
2022/10/15 00:20:50;;;;;;;;;15.00;13.50;;;;;17.28;87.22;99267.22;5045207;28;45468;-72
2022/10/15 00:23:16;;;;;;;;;12.25;10.00;;;;;17.24;87.44;99263.06;5052415;28;45950;-72
2022/10/15 00:25:41;;;;;;;;;16.75;15.25;;;;;17.20;87.82;99262.41;5048131;28;45486;-72
2022/10/15 00:28:07;;;;;;;;;26.75;22.50;;;;;17.17;87.96;99253.75;5053487;28;45762;-72
2022/10/15 00:30:32;;;;;;;;;18.75;15.75;;;;;17.15;88.37;99255.66;5049341;28;45412;-72
2022/10/15 00:32:58;;;;;;;;;20.50;16.00;;;;;17.12;88.36;99258.50;5052342;28;45520;-72
2022/10/15 00:35:23;;;;;;;;;14.00;14.00;;;;;17.09;88.16;99244.44;5051631;28;45468;-72
2022/10/15 00:37:49;;;;;;;;;14.50;14.00;;;;;17.07;88.38;99245.50;5055620;28;45497;-72
2022/10/15 00:40:14;;;;;;;;;16.50;14.25;;;;;17.04;88.64;99235.06;5053196;28;45368;-72
2022/10/15 00:42:40;;;;;;;;;14.25;14.25;;;;;17.01;88.90;99237.91;5055781;28;45373;-72
2022/10/15 00:45:10;;;;;;;;;15.00;13.00;;;;;16.99;89.25;99243.34;5087210;27;45394;-72
2022/10/15 00:47:48;;;;;;;;;18.75;14.25;;;;;16.97;88.72;99242.56;5055748;28;46385;-72
2022/10/15 00:50:23;;;;;;;;;16.25;14.25;;;;;16.94;88.81;99244.56;5061149;28;45510;-72
2022/10/15 00:53:00;;;;;;;;;14.50;13.75;;;;;16.90;88.79;99240.41;5052852;28;45338;-72
2022/10/15 00:55:32;;;;;;;;;13.75;12.00;;;;;16.85;88.95;99232.72;5070454;28;45558;-72
2022/10/15 00:58:04;;;;;;;;;14.00;11.75;;;;;16.83;88.83;99231.94;5055932;27;45696;-72
2022/10/15 01:00:30;;;;;;;;;13.40;12.40;;;;;16.79;88.81;99230.44;5054746;28;45444;-72
2022/10/15 01:02:56;;;;;;;;;13.00;12.25;;;;;16.77;88.89;99234.13;5054598;28;45432;-72
2022/10/15 01:05:23;;;;;;;;;15.00;13.75;;;;;16.76;89.34;99248.44;5052525;28;45536;-72
2022/10/15 01:07:48;;;;;;;;;10.75;10.00;;;;;16.70;88.12;99237.22;5056496;28;46465;-72
2022/10/15 01:10:14;;;;;;;;;11.50;10.25;;;;;16.65;87.83;99241.09;5054447;28;45255;-73
2022/10/15 01:12:56;;;;;;;;;11.00;10.00;;;;;16.58;88.26;99248.59;5056759;28;45433;-72
2022/10/15 01:15:35;;;;;;;;;9.50;9.50;;;;;16.54;88.58;99246.22;5052175;28;45452;-72
2022/10/15 01:18:13;;;;;;;;;11.20;9.20;;;;;16.50;88.37;99240.22;5056545;28;46431;-72
2022/10/15 01:21:21;;;;;;;;;11.40;11.00;;;;;16.46;88.44;99254.66;5066464;28;45386;-72
2022/10/15 01:23:52;;;;;;;;;12.75;11.75;;;;;16.37;88.46;99260.56;5047340;28;45403;-72
2022/10/15 01:26:54;;;;;;;;;9.50;9.50;;;;;16.26;88.97;99255.88;5048401;28;45549;-73
2022/10/15 01:29:29;;;;;;;;;11.75;11.75;;;;;16.20;89.11;99252.75;5056322;28;46392;-72
2022/10/15 01:32:06;;;;;;;;;9.00;8.00;;;;;16.17;88.93;99251.13;5048899;28;45353;-72
2022/10/15 01:34:41;;;;;;;;;9.50;8.50;;;;;16.14;88.92;99250.47;5056010;28;45321;-72
2022/10/15 01:37:19;;;;;;;;;11.75;11.75;;;;;16.11;88.69;99250.66;5046830;28;45355;-72
2022/10/15 01:39:53;;;;;;;;;8.75;8.75;;;;;16.10;88.83;99249.78;5056304;28;45336;-72
2022/10/15 01:42:33;;;;;;;;;14.40;11.80;;;;;16.07;88.74;99250.00;5050874;28;45444;-72
2022/10/15 01:45:05;;;;;;;;;10.50;8.50;;;;;16.04;89.08;99247.53;5054687;28;45439;-72
2022/10/15 01:47:54;;;;;;;;;11.50;11.00;;;;;16.01;89.33;99237.06;5054189;28;45513;-72
2022/10/15 01:50:22;;;;;;;;;10.50;10.25;;;;;16.00;89.92;99241.53;5053580;28;46254;-72
2022/10/15 01:52:50;;;;;;;;;13.20;11.40;;;;;16.00;89.86;99243.31;5055934;28;45499;-72
2022/10/15 01:55:18;;;;;;;;;10.75;9.50;;;;;16.00;90.41;99232.69;5056125;28;45467;-72
2022/10/15 01:57:45;;;;;;;;;19.25;15.50;;;;;15.98;90.67;99222.13;5055776;28;45471;-72
2022/10/15 02:00:11;;;;;;;;;15.50;12.50;;;;;15.99;91.26;99217.69;5048065;28;46233;-72
2022/10/15 02:02:36;;;;;;;;;12.40;12.40;;;;;15.98;91.18;99213.31;5054625;28;45365;-72
2022/10/15 02:05:05;;;;;;;;;15.50;11.50;;;;;15.98;91.57;99208.00;5051353;28;45716;-72
2022/10/15 02:07:34;;;;;;;;;13.50;13.50;;;;;15.98;92.17;99216.81;5048685;28;45423;-74
2022/10/15 02:10:11;;;;;;;;;15.75;14.75;;;;;15.97;92.04;99206.28;5054150;28;45572;-74
2022/10/15 02:12:48;;;;;;;;;14.20;12.40;;;;;15.98;92.29;99202.66;5050176;28;45383;-72
2022/10/15 02:15:50;;;;;;;;;17.75;15.25;;;;;15.97;92.43;99211.59;5051136;28;45649;-72
2022/10/15 02:18:19;;;;;;;;;14.00;12.75;;;;;15.97;92.50;99211.59;5050901;28;45467;-72
2022/10/15 02:20:58;;;;;;;;;13.25;9.75;;;;;15.95;92.34;99206.38;5062115;28;47237;-72
2022/10/15 02:23:26;;;;;;;;;15.25;13.75;;;;;15.96;92.74;99215.19;5055683;28;45427;-72
2022/10/15 02:25:53;;;;;;;;;14.00;14.00;;;;;15.95;92.81;99205.50;5048646;28;45376;-72
2022/10/15 02:28:22;;;;;;;;;8.75;8.75;;;;;15.95;92.46;99209.03;5053237;28;45520;-72
2022/10/15 02:30:51;;;;;;;;;17.00;16.50;;;;;15.93;92.73;99204.75;5046429;28;45473;-72
2022/10/15 02:33:20;;;;;;;;;17.80;14.20;;;;;15.92;92.39;99200.41;5053179;28;45363;-73
2022/10/15 02:35:48;;;;;;;;;17.50;15.50;;;;;15.92;92.79;99201.22;5053028;28;45507;-73
2022/10/15 02:38:18;;;;;;;;;14.75;13.00;;;;;15.90;92.54;99191.66;5053304;28;45545;-73
2022/10/15 02:40:45;;;;;;;;;15.00;13.75;;;;;15.90;92.54;99194.31;5047863;28;46530;-73
2022/10/15 02:43:14;;;;;;;;;13.40;13.40;;;;;15.89;92.61;99197.94;5052539;28;45435;-72
2022/10/15 02:45:39;;;;;;;;;15.50;14.25;;;;;15.87;93.22;99192.69;5051219;28;45524;-72
2022/10/15 02:48:05;;;;;;;;;15.50;14.50;;;;;15.86;93.23;99198.09;5054320;28;45492;-73
2022/10/15 02:50:31;;;;;;;;;14.75;14.25;;;;;15.84;93.23;99198.19;5047344;28;46311;-72
2022/10/15 02:52:56;;;;;;;;;18.00;17.50;;;;;15.83;93.27;99207.13;5048704;28;45366;-73
2022/10/15 02:55:21;;;;;;;;;13.00;13.00;;;;;15.80;93.22;99203.78;5049521;28;45376;-72
2022/10/15 02:57:47;;;;;;;;;18.25;16.00;;;;;15.79;93.24;99196.75;5053299;28;45483;-72
2022/10/15 03:00:13;;;;;;;;;10.75;10.50;;;;;15.77;93.34;99207.47;5049248;28;46221;-72
2022/10/15 03:02:38;;;;;;;;;11.00;10.00;;;;;15.75;92.67;99196.09;5049620;28;45413;-72
2022/10/15 03:05:04;;;;;;;;;14.00;13.00;;;;;15.74;92.62;99193.53;5049500;28;45353;-74
2022/10/15 03:07:29;;;;;;;;;12.75;11.25;;;;;15.71;92.63;99191.91;5054717;28;45389;-74
2022/10/15 03:09:55;;;;;;;;;9.00;8.25;;;;;15.67;92.19;99196.53;5051761;28;45937;-74
2022/10/15 03:12:22;;;;;;;;;12.50;10.75;;;;;15.65;91.72;99194.94;5059740;28;45295;-74
2022/10/15 03:14:51;;;;;;;;;9.50;9.50;;;;;15.61;92.16;99190.72;5053293;28;45439;-74
2022/10/15 03:17:17;;;;;;;;;10.00;9.00;;;;;15.58;91.95;99186.47;5050992;28;45373;-74
2022/10/15 03:19:42;;;;;;;;;10.00;9.50;;;;;15.53;91.47;99182.34;5054366;28;45664;-74
2022/10/15 03:22:08;;;;;;;;;11.50;10.00;;;;;15.48;91.72;99184.41;5049327;28;45361;-74
2022/10/15 03:24:33;;;;;;;;;14.50;12.00;;;;;15.43;91.84;99183.81;5053406;28;45545;-74
2022/10/15 03:26:58;;;;;;;;;10.00;9.25;;;;;15.39;92.53;99193.78;5054060;28;45370;-74
2022/10/15 03:29:24;;;;;;;;;10.50;10.25;;;;;15.36;92.40;99189.50;5054424;28;46410;-74
2022/10/15 03:31:49;;;;;;;;;13.75;11.75;;;;;15.33;92.33;99187.03;5053436;28;45502;-74
2022/10/15 03:34:15;;;;;;;;;12.50;10.75;;;;;15.32;92.21;99179.13;5054765;28;45332;-74
2022/10/15 03:36:40;;;;;;;;;11.75;11.00;;;;;15.31;92.95;99177.44;5050401;28;45476;-74
2022/10/15 03:39:07;;;;;;;;;11.00;9.00;;;;;15.30;92.62;99179.22;5052777;28;46272;-74
2022/10/15 03:41:32;;;;;;;;;12.20;10.80;;;;;15.30;92.72;99176.56;5060730;28;45483;-74
2022/10/15 03:44:02;;;;;;;;;13.50;13.50;;;;;15.30;93.16;99175.72;5051490;28;45439;-74
2022/10/15 03:46:28;;;;;;;;;12.75;12.50;;;;;15.31;93.68;99172.13;5050281;28;45419;-74
2022/10/15 03:48:53;;;;;;;;;13.75;13.25;;;;;15.31;93.52;99172.97;5053448;28;46217;-74
2022/10/15 03:51:19;;;;;;;;;12.00;10.75;;;;;15.31;93.54;99183.59;5052493;28;45520;-74
2022/10/15 03:53:44;;;;;;;;;13.00;9.50;;;;;15.30;93.07;99179.22;5054310;28;45554;-74
2022/10/15 03:56:09;;;;;;;;;13.25;10.50;;;;;15.31;93.45;99188.06;5052507;28;45339;-74
2022/10/15 03:58:35;;;;;;;;;11.25;10.00;;;;;15.30;93.53;99184.53;5054026;28;46333;-74
2022/10/15 04:01:00;;;;;;;;;12.50;12.50;;;;;15.31;93.37;99188.06;5052951;28;45527;-74
2022/10/15 04:03:26;;;;;;;;;10.50;9.50;;;;;15.28;93.43;99178.44;5053672;28;45501;-74
2022/10/15 04:05:52;;;;;;;;;14.75;12.25;;;;;15.28;93.35;99180.25;5050936;28;45506;-74
2022/10/15 04:08:18;;;;;;;;;14.50;13.25;;;;;15.27;93.64;99178.53;5057507;28;45662;-74
2022/10/15 04:10:43;;;;;;;;;14.50;13.75;;;;;15.26;93.67;99187.44;5054519;28;45690;-74
2022/10/15 04:13:09;;;;;;;;;14.50;11.25;;;;;15.24;93.93;99184.91;5056869;28;45413;-71
2022/10/15 04:15:38;;;;;;;;;14.50;13.75;;;;;15.25;93.77;99191.06;5053714;28;45384;-74
2022/10/15 04:18:03;;;;;;;;;13.00;11.00;;;;;15.23;93.79;99187.66;5054843;28;45512;-74
2022/10/15 04:20:29;;;;;;;;;12.25;10.25;;;;;15.23;93.42;99190.31;5051548;28;45313;-74
2022/10/15 04:22:55;;;;;;;;;10.25;9.50;;;;;15.21;93.66;99187.75;5053635;28;45451;-74
2022/10/15 04:25:20;;;;;;;;;9.00;9.00;;;;;15.19;93.41;99200.25;5087780;27;45548;-74
2022/10/15 04:27:46;;;;;;;;;16.25;13.50;;;;;15.14;93.20;99194.34;5051351;28;48026;-74
2022/10/15 04:30:12;;;;;;;;;16.75;11.75;;;;;15.15;92.90;99195.19;5053824;28;45476;-74
2022/10/15 04:32:38;;;;;;;;;14.75;12.50;;;;;15.12;93.28;99192.72;5056284;28;45456;-74
2022/10/15 04:35:04;;;;;;;;;14.25;13.00;;;;;15.10;93.12;99194.59;5055751;28;45612;-74
2022/10/15 04:37:32;;;;;;;;;13.00;12.25;;;;;15.10;93.22;99191.94;5054610;28;46224;-73
2022/10/15 04:39:58;;;;;;;;;13.00;11.25;;;;;15.08;92.81;99194.69;5057038;28;45340;-74
2022/10/15 04:42:23;;;;;;;;;11.25;11.25;;;;;15.08;93.05;99196.50;5057421;28;45481;-74
2022/10/15 04:44:48;;;;;;;;;10.25;10.25;;;;;15.08;93.16;99199.16;5056961;28;45519;-74
2022/10/15 04:47:14;;;;;;;;;10.25;9.75;;;;;15.08;93.18;99196.50;5053680;28;46280;-74
2022/10/15 04:49:39;;;;;;;;;11.25;10.25;;;;;15.06;93.12;99185.13;5055563;28;45511;-74
2022/10/15 04:52:05;;;;;;;;;11.75;8.75;;;;;15.03;92.96;99186.16;5057141;28;45751;-74
2022/10/15 04:54:30;;;;;;;;;8.00;6.25;;;;;15.01;93.27;99191.53;5056961;28;45605;-74
2022/10/15 04:56:56;;;;;;;;;11.75;10.25;;;;;15.00;93.56;99191.63;5055491;28;46180;-74
2022/10/15 04:59:21;;;;;;;;;12.00;11.75;;;;;15.01;94.11;99199.50;5057187;28;45514;-74
2022/10/15 05:01:46;;;;;;;;;11.25;10.75;;;;;15.01;93.66;99201.31;5055147;28;45547;-74
2022/10/15 05:04:12;;;;;;;;;12.50;10.75;;;;;15.02;93.50;99198.56;5056114;28;45554;-74
2022/10/15 05:06:38;;;;;;;;;11.00;10.00;;;;;15.03;93.60;99196.75;5048145;28;46015;-74
2022/10/15 05:09:03;;;;;;;;;11.75;9.75;;;;;15.01;93.80;99194.19;5056785;28;45571;-74
2022/10/15 05:11:29;;;;;;;;;12.25;11.00;;;;;14.99;93.26;99198.72;5046934;28;45811;-74
2022/10/15 05:13:56;;;;;;;;;13.00;13.00;;;;;14.98;93.40;99193.50;5056361;28;45547;-74
2022/10/15 05:16:24;;;;;;;;;10.75;10.50;;;;;14.97;93.18;99195.31;5046794;28;45465;-74
2022/10/15 05:18:55;;;;;;;;;13.20;10.40;;;;;14.96;93.50;99198.03;5056021;28;45404;-74
2022/10/15 05:21:20;;;;;;;;;11.75;11.25;;;;;14.94;93.49;99200.78;5054092;28;45344;-74
2022/10/15 05:23:46;;;;;;;;;12.25;11.50;;;;;14.93;93.37;99196.41;5056758;28;45471;-74
2022/10/15 05:26:18;;;;;;;;;10.75;9.25;;;;;14.92;93.39;99202.66;5050632;28;45388;-74
2022/10/15 05:28:43;;;;;;;;;11.20;10.00;;;;;14.90;93.58;99204.56;5056333;28;45440;-74
2022/10/15 05:31:17;;;;;;;;;12.50;12.50;;;;;14.89;93.19;99210.81;5055797;28;45481;-74
2022/10/15 05:33:43;;;;;;;;;13.00;10.25;;;;;14.86;93.09;99207.47;5056157;28;45410;-74
2022/10/15 05:36:17;;;;;;;;;11.00;11.00;;;;;14.81;93.45;99206.88;5054311;28;46717;-74
2022/10/15 05:38:47;;;;;;;;;13.00;10.00;;;;;14.77;93.60;99205.31;5049462;28;45364;-75
2022/10/15 05:41:13;;;;;;;;;11.00;10.25;;;;;14.74;93.53;99200.22;5051136;28;45448;-74
2022/10/15 05:43:38;;;;;;;;;11.50;11.50;;;;;14.74;93.97;99208.16;5056088;28;45486;-74
2022/10/15 05:46:04;;;;;;;;;13.00;11.75;;;;;14.72;93.49;99212.72;5051582;28;46185;-74
2022/10/15 05:48:30;;;;;;;;;15.00;13.25;;;;;14.70;93.60;99218.09;5055796;28;45394;-74
2022/10/15 05:51:04;;;;;;;;;14.50;12.25;;;;;14.66;93.95;99217.41;5052723;28;45223;-74
2022/10/15 05:53:29;;;;;;;;;10.00;10.00;;;;;14.65;94.35;99218.34;5055221;28;45430;-74
2022/10/15 05:55:57;;;;;;;;;13.25;13.00;;;;;14.63;94.18;99214.06;5055109;28;46435;-74
2022/10/15 05:58:23;;;;;;;;;9.50;9.50;;;;;14.61;94.20;99224.75;5055887;27;45438;-74
2022/10/15 06:00:57;;;;;;;;;14.00;13.00;;;;;14.62;94.37;99220.28;5049049;28;45397;-74
2022/10/15 06:03:23;;;;;;;;;15.25;12.25;;;;;14.62;94.47;99212.34;5055939;28;45501;-74
2022/10/15 06:05:49;;;;;;;;;12.50;10.75;;;;;14.61;94.36;99215.94;5053075;28;45518;-74
2022/10/15 06:08:14;;;;;;;;;11.75;9.25;;;;;14.60;94.48;99215.06;5055497;28;45380;-74
2022/10/15 06:10:40;;;;;;;;;13.25;10.25;;;;;14.63;94.54;99224.66;5051283;28;45833;-74
2022/10/15 06:13:06;;;;;;;;;12.75;12.75;;;;;14.62;94.50;99217.66;5048167;28;45530;-74
2022/10/15 06:15:32;;;;;;;;;14.00;13.00;;;;;14.64;94.24;99215.75;5054017;28;46111;-74
2022/10/15 06:17:58;;;;;;;;;15.00;12.00;;;;;14.64;94.62;99221.06;5055269;28;45390;-74
2022/10/15 06:20:24;;;;;;;;;15.75;12.25;;;;;14.66;94.12;99217.41;5052405;28;45313;-74
2022/10/15 06:22:49;;;;;;;;;14.25;12.75;;;;;14.68;94.20;99219.97;5054457;28;45297;-74
2022/10/15 06:25:15;;;;;;;;;14.00;12.75;;;;;14.69;94.20;99221.69;5052599;28;45406;-74
2022/10/15 06:27:40;;;;;;;;;15.75;15.25;;;;;14.69;94.55;99226.13;5053526;28;45580;-74
2022/10/15 06:30:07;;;;;;;;;16.50;14.25;;;;;14.69;94.08;99224.34;5052391;28;45923;-74
2022/10/15 06:32:33;;;;;;;;;13.00;12.25;;;;;14.70;93.70;99217.25;5053362;28;45440;-74
2022/10/15 06:34:58;;;;;;;;;15.75;14.25;;;;;14.70;93.82;99228.72;5053449;28;46531;-74
2022/10/15 06:37:24;;;;;;;;;16.75;15.25;;;;;14.70;93.79;99226.06;5051878;28;45424;-74
2022/10/15 06:39:49;;;;;;;;;16.25;14.75;;;;;14.73;93.77;99230.34;5051454;28;46036;-74
2022/10/15 06:42:14;;;;;;;;;16.00;14.50;;;;;14.76;93.98;99233.66;5050269;28;45461;-74
2022/10/15 06:44:40;;;;;;;;;15.00;14.00;;;;;14.79;93.73;99229.97;5055043;28;46074;-74
2022/10/15 06:47:06;;;;;;;;;16.75;14.75;;;;;14.81;93.42;99234.28;5050285;28;45588;-74
2022/10/15 06:49:31;;;;;;;;;16.50;15.50;;;;;14.82;93.34;99238.63;5054692;28;45373;-74
2022/10/15 06:51:58;;;;;;;;;16.50;16.00;;;;;14.84;93.21;99243.88;5051063;28;45596;-74
2022/10/15 06:54:24;;;;;;;;;15.75;14.25;;;;;14.87;93.16;99243.69;5054685;28;45421;-74
2022/10/15 06:56:49;;;;;;;;;13.50;12.75;;;;;14.89;93.30;99250.63;5041560;28;45527;-75
2022/10/15 06:59:15;;;;;;;;;16.00;16.00;;;;;14.92;93.22;99244.28;5054945;28;45378;-74
2022/10/15 07:01:40;;;;;;;;;18.75;15.50;;;;;14.95;93.10;99247.63;5042850;28;45479;-74
2022/10/15 07:04:06;;;;;;;;;19.50;17.50;;;;;14.97;93.24;99251.06;5054530;28;45476;-74
2022/10/15 07:06:33;;;;;;;;;15.25;15.25;;;;;15.02;93.43;99250.81;5045232;28;45539;-73
2022/10/15 07:09:00;;;;;;;;;30.00;28.33;;;;;15.05;92.89;99252.44;5070089;28;45397;-74
2022/10/15 07:11:26;;;;;;;;;22.50;21.75;;;;;15.09;92.79;99251.28;5051371;28;45432;-74
2022/10/15 07:13:51;;;;;;;;;17.25;15.50;;;;;15.13;92.47;99251.03;5069285;27;45417;-74
2022/10/15 07:16:16;;;;;;;;;17.50;14.50;;;;;15.16;92.46;99248.22;5046119;28;45413;-75
2022/10/15 07:18:42;;;;;;;;;14.50;14.25;;;;;15.21;92.51;99240.00;5053815;28;45420;-75
2022/10/15 07:21:09;;;;;;;;;16.00;14.00;;;;;15.24;91.80;99248.66;5048451;28;45333;-74
2022/10/15 07:23:34;;;;;;;;;15.50;14.75;;;;;15.28;91.62;99252.81;5069232;28;46791;-74
2022/10/15 07:26:00;;;;;;;;;14.25;13.75;;;;;15.32;91.81;99250.84;5051642;28;45449;-74
2022/10/15 07:28:26;;;;;;;;;15.00;12.50;;;;;15.35;91.51;99248.03;5051781;28;45381;-74
2022/10/15 07:30:52;;;;;;;;;14.00;14.00;;;;;15.40;91.77;99253.09;5047501;28;45350;-74
2022/10/15 07:33:17;;;;;;;;;14.50;12.50;;;;;15.44;91.27;99252.81;5063678;28;47671;-74
2022/10/15 07:35:43;;;;;;;;;13.75;12.00;;;;;15.47;91.67;99247.31;5047788;28;45289;-74
2022/10/15 07:38:08;;;;;;;;;17.25;14.25;;;;;15.53;91.12;99252.28;5053467;28;45399;-74
2022/10/15 07:40:34;;;;;;;;;16.25;14.25;;;;;15.59;91.25;99259.06;5052552;28;45439;-74
2022/10/15 07:42:59;;;;;;;;;18.00;16.25;;;;;15.65;90.91;99267.53;5060474;28;45662;-74
2022/10/15 07:45:26;;;;;;;;;22.75;18.00;;;;;15.72;90.93;99267.19;5058605;28;45515;-74
2022/10/15 07:47:52;;;;;;;;;19.25;17.75;;;;;15.79;90.41;99268.53;5060751;28;45412;-65
2022/10/15 07:50:19;;;;;;;;;17.25;14.75;;;;;15.84;90.22;99269.97;5057861;28;45308;-65
2022/10/15 07:52:45;;;;;;;;;9.75;9.50;;;;;15.89;89.90;99265.25;5059893;28;45853;-64
2022/10/15 07:55:10;;;;;;;;;7.75;5.75;;;;;15.97;89.36;99264.78;5058545;28;45470;-65
2022/10/15 07:57:36;;;;;;;;;19.75;15.50;;;;;16.03;89.57;99259.97;5060811;28;45810;-65
2022/10/15 08:00:01;;;;;;;;;15.75;13.75;;;;;16.10;89.51;99259.56;5059059;28;45656;-64
2022/10/15 08:02:27;;;;;;;;;18.50;17.00;;;;;16.14;89.06;99261.97;5052218;28;45575;-64
2022/10/15 08:04:52;;;;;;;;;19.50;15.75;;;;;16.17;89.08;99261.78;5059303;28;45386;-65
2022/10/15 08:07:17;;;;;;;;;17.75;15.50;;;;;16.25;88.91;99261.34;5056096;28;45383;-65
2022/10/15 08:09:43;;;;;;;;;20.75;19.00;;;;;16.30;88.93;99267.19;5092744;27;45366;-65
2022/10/15 08:12:08;;;;;;;;;20.25;20.25;;;;;16.34;88.82;99263.41;5057976;28;46914;-65
2022/10/15 08:14:35;;;;;;;;;23.00;20.00;;;;;16.39;88.51;99264.00;5060296;28;45392;-65
2022/10/15 08:17:02;;;;;;;;;26.25;23.25;;;;;16.42;88.61;99259.31;5048349;28;45417;-64
2022/10/15 08:19:28;;;;;;;;;22.50;20.25;;;;;16.47;88.26;99251.06;5059933;28;45400;-65
2022/10/15 08:21:53;;;;;;;;;22.25;18.50;;;;;16.53;88.17;99248.03;5053034;28;47182;-65
2022/10/15 08:24:19;;;;;;;;;21.00;17.50;;;;;16.57;87.93;99238.91;5059572;28;45543;-65
2022/10/15 08:26:45;;;;;;;;;18.75;16.00;;;;;16.65;87.88;99235.78;5058260;28;45681;-64
2022/10/15 08:29:11;;;;;;;;;21.00;19.25;;;;;16.70;87.20;99237.22;5059587;28;45378;-65
2022/10/15 08:31:38;;;;;;;;;18.25;18.00;;;;;16.76;87.29;99241.25;5058112;28;47286;-66
2022/10/15 08:34:03;;;;;;;;;20.25;19.00;;;;;16.82;86.61;99240.03;5059236;27;45384;-65
2022/10/15 08:36:29;;;;;;;;;23.25;18.00;;;;;16.86;86.63;99242.41;5058976;28;45463;-65
2022/10/15 08:38:54;;;;;;;;;21.00;17.50;;;;;16.90;86.26;99238.59;5059679;28;45540;-64
2022/10/15 08:41:38;;;;;;;;;22.50;18.50;;;;;16.95;86.27;99233.81;5057671;28;45466;-65
2022/10/15 08:44:05;;;;;;;;;22.75;18.75;;;;;17.01;85.83;99232.56;5059532;28;45459;-65
2022/10/15 08:46:43;;;;;;;;;14.50;14.50;;;;;17.06;85.63;99227.81;5056280;28;45470;-65
2022/10/15 08:49:36;;;;;;;;;14.25;12.75;;;;;17.09;85.34;99224.97;5058854;28;45376;-65
2022/10/15 08:52:20;;;;;;;;;15.25;15.00;;;;;17.14;85.02;99224.63;5057894;28;45502;-64
2022/10/15 08:54:46;;;;;;;;;15.60;14.80;;;;;17.17;84.81;99224.44;5056066;28;45368;-65
2022/10/15 08:57:24;;;;;;;;;13.25;12.00;;;;;17.23;84.58;99221.38;5051456;28;45403;-65
2022/10/15 09:00:11;;;;;;;;;15.25;11.00;;;;;17.29;84.66;99221.81;5055085;28;45436;-65
2022/10/15 09:02:53;;;;;;;;;10.25;8.00;;;;;17.37;83.61;99222.19;5040336;28;45434;-65
2022/10/15 09:05:19;;;;;;;;;12.00;9.60;;;;;17.41;83.81;99223.69;5052621;28;45483;-63
2022/10/15 09:08:11;;;;;;;;;12.00;10.00;;;;;17.49;83.18;99222.31;5055795;28;45369;-65
2022/10/15 09:10:43;;;;;;;;;9.00;9.00;;;;;17.56;82.89;99226.28;5040410;28;45478;-64
2022/10/15 09:13:23;;;;;;;;;9.20;8.00;;;;;17.61;82.66;99219.69;5057523;28;48339;-64
2022/10/15 09:16:04;;;;;;;;;10.60;9.20;;;;;17.69;82.55;99221.88;5046133;28;45519;-64
2022/10/15 09:18:36;;;;;;;;;14.00;8.25;;;;;17.74;82.34;99217.94;5049886;28;45414;-63
2022/10/15 09:21:04;;;;;;;;;10.25;10.00;;;;;17.81;81.64;99215.69;5053605;28;45436;-64
2022/10/15 09:23:32;;;;;;;;;7.80;7.80;;;;;17.86;81.48;99218.91;5055877;28;45554;-65
2022/10/15 09:26:08;;;;;;;;;11.60;10.20;;;;;17.93;80.84;99222.03;5047970;28;45372;-64
2022/10/15 09:28:50;;;;;;;;;14.75;9.75;;;;;17.98;80.63;99215.41;5055971;28;45544;-65
2022/10/15 09:31:21;;;;;;;;;7.25;7.25;;;;;18.04;80.53;99214.13;5049711;28;45400;-65
2022/10/15 09:33:53;;;;;;;;;11.00;9.25;;;;;18.08;80.66;99208.50;5055016;28;45423;-64
2022/10/15 09:36:42;;;;;;;;;9.60;9.00;;;;;18.16;80.30;99207.09;5050422;28;45297;-65
2022/10/15 09:39:29;;;;;;;;;9.20;8.40;;;;;18.19;80.22;99197.06;5057053;28;45389;-66
2022/10/15 09:41:58;;;;;;;;;9.75;9.00;;;;;18.25;80.12;99207.31;5051218;28;45396;-65
2022/10/15 09:44:32;;;;;;;;;8.80;7.20;;;;;18.28;79.48;99204.41;5055436;28;45730;-65
2022/10/15 09:46:58;;;;;;;;;8.00;7.60;;;;;18.35;79.28;99194.16;5051756;27;45302;-65
2022/10/15 09:49:26;;;;;;;;;8.25;8.00;;;;;18.41;79.06;99197.25;5055386;28;45874;-64
2022/10/15 09:52:30;;;;;;;;;9.00;9.00;;;;;18.49;78.90;99194.03;5054443;28;45464;-64
2022/10/15 09:55:14;;;;;;;;;7.00;7.00;;;;;18.54;79.14;99185.69;5047655;28;45588;-65
2022/10/15 09:57:40;;;;;;;;;8.40;8.40;;;;;18.61;79.05;99179.81;5059342;28;45396;-65
2022/10/15 10:00:09;;;;;;;;;7.25;6.00;;;;;18.67;78.25;99191.88;5051757;28;45415;-64
2022/10/15 10:02:34;;;;;;;;;8.75;7.75;;;;;18.74;78.19;99188.69;5082121;27;45488;-65
2022/10/15 10:05:27;;;;;;;;;9.50;8.00;;;;;18.82;78.20;99186.28;5049080;28;45446;-65
2022/10/15 10:08:08;;;;;;;;;8.00;6.60;;;;;18.91;77.37;99179.44;5054931;28;45690;-65
2022/10/15 10:10:36;;;;;;;;;6.20;6.20;;;;;18.97;77.00;99178.13;5038746;28;45399;-65
2022/10/15 10:13:20;;;;;;;;;8.50;7.50;;;;;19.00;76.90;99177.91;5051183;28;45460;-65
2022/10/15 10:15:46;;;;;;;;;14.25;10.25;;;;;19.04;76.31;99172.22;5071015;27;45766;-65
2022/10/15 10:18:23;;;;;;;;;9.25;7.00;;;;;19.09;76.05;99169.22;5052631;28;45340;-65
2022/10/15 10:20:58;;;;;;;;;4.60;3.00;;;;;19.15;76.25;99163.41;5047078;28;45411;-65
2022/10/15 10:23:30;;;;;;;;;8.50;7.00;;;;;19.21;75.12;99162.09;5054395;28;45513;-65
2022/10/15 10:25:57;;;;;;;;;8.75;8.00;;;;;19.24;74.20;99156.53;5057355;28;47203;-65
2022/10/15 10:28:26;;;;;;;;;5.00;5.00;;;;;19.28;74.22;99166.00;5052904;28;45535;-65
2022/10/15 10:30:55;;;;;;;;;6.60;6.40;;;;;19.30;74.01;99164.06;5052479;28;45354;-65
2022/10/15 10:33:30;;;;;;;;;10.50;8.75;;;;;19.33;73.81;99162.03;5054067;28;45299;-64
2022/10/15 10:35:56;;;;;;;;;8.00;6.00;;;;;19.37;72.29;99152.81;5050468;28;45426;-65
2022/10/15 10:38:40;;;;;;;;;6.25;5.50;;;;;19.44;72.75;99150.50;5054614;28;45416;-65
2022/10/15 10:41:08;;;;;;;;;5.80;5.00;;;;;19.50;70.58;99152.75;5053908;28;45370;-65
2022/10/15 10:43:54;;;;;;;;;9.00;6.80;;;;;19.57;70.69;99148.66;5054525;28;45393;-65
2022/10/15 10:46:23;;;;;;;;;8.00;5.60;;;;;19.64;71.13;99141.00;5051468;27;46666;-65
2022/10/15 10:48:52;;;;;;;;;8.60;6.20;;;;;19.69;70.28;99137.00;5054179;28;45384;-65
2022/10/15 10:51:21;;;;;;;;;8.40;7.80;;;;;19.73;70.43;99143.84;5051086;28;45589;-64
2022/10/15 10:53:58;;;;;;;;;5.20;5.20;;;;;19.80;69.73;99145.03;5051817;28;45540;-64
2022/10/15 10:56:39;;;;;;;;;4.00;3.20;;;;;19.90;69.27;99130.97;5048898;28;46285;-64
2022/10/15 10:59:35;;;;;;;;;3.80;2.00;;;;;19.97;68.03;99129.50;5052891;28;45508;-64
2022/10/15 11:02:03;;;;;;;;;11.00;8.00;;;;;20.01;67.73;99125.63;5047804;28;46530;-64
2022/10/15 11:04:33;;;;;;;;;7.00;4.00;;;;;20.08;67.30;99130.38;5053565;28;45519;-64
2022/10/15 11:07:25;;;;;;;;;4.60;4.60;;;;;20.16;66.60;99119.91;5045394;27;45642;-64
2022/10/15 11:10:07;;;;;;;;;6.40;4.60;;;;;20.23;66.07;99114.06;5054095;28;45364;-64
2022/10/15 11:12:41;;;;;;;;;4.60;4.60;;;;;20.27;66.32;99113.72;5046334;28;45408;-64
2022/10/15 11:15:25;;;;;;;;;6.00;5.40;;;;;20.32;66.40;99102.59;5051829;28;45469;-64
2022/10/15 11:18:26;;;;;;;;;3.40;3.40;;;;;20.40;65.67;99105.56;5049253;28;46238;-64
2022/10/15 11:21:10;;;;;;;;;4.20;4.00;;;;;20.45;65.87;99104.19;5016377;28;45544;-64
2022/10/15 11:23:45;;;;;;;;;4.60;4.60;;;;;20.48;64.79;99098.59;5053729;28;45419;-64
2022/10/15 11:26:16;;;;;;;;;3.20;3.20;;;;;20.54;64.56;99091.91;5043115;28;45290;-64
2022/10/15 11:29:09;;;;;;;;;5.00;4.00;;;;;20.63;64.55;99092.97;5053843;28;46482;-64
2022/10/15 11:31:34;;;;;;;;;3.00;3.00;;;;;20.69;63.43;99087.13;5047775;28;45330;-64
2022/10/15 11:34:08;;;;;;;;;4.25;3.00;;;;;20.71;63.35;99088.69;5051014;28;45505;-64